createdAt,value
2023-04-23T00:00:27.876Z,0.00
2023-04-23T00:01:27.787Z,0.00
2023-04-23T00:02:27.895Z,0.00
2023-04-23T00:03:28.109Z,0.00
2023-04-23T00:04:27.866Z,0.00
2023-04-23T00:05:27.849Z,0.00
2023-04-23T00:06:27.756Z,0.00
2023-04-23T00:07:27.749Z,0.00
2023-04-23T00:08:27.747Z,0.00
2023-04-23T00:09:27.791Z,0.00
2023-04-23T00:10:27.723Z,0.00
2023-04-23T00:11:27.657Z,0.00
2023-04-23T00:12:27.671Z,0.00
2023-04-23T00:13:27.648Z,0.00
2023-04-23T00:14:27.664Z,0.00
2023-04-23T00:15:27.722Z,0.00
2023-04-23T00:16:27.652Z,0.00
2023-04-23T00:17:27.658Z,0.00
2023-04-23T00:18:27.585Z,0.00
2023-04-23T00:19:27.571Z,0.00
2023-04-23T00:20:27.594Z,0.00
2023-04-23T00:21:27.674Z,0.00
2023-04-23T00:22:27.557Z,0.00
2023-04-23T00:23:27.485Z,0.00
2023-04-23T00:24:27.497Z,0.00
2023-04-23T00:25:27.494Z,0.00
2023-04-23T00:26:27.495Z,0.00
2023-04-23T00:27:27.495Z,0.00
2023-04-23T00:28:27.475Z,0.00
2023-04-23T00:29:27.402Z,0.00
2023-04-23T00:30:27.426Z,0.00
2023-04-23T00:31:27.463Z,0.00
2023-04-23T00:32:27.445Z,0.00
2023-04-23T00:33:27.462Z,0.00
2023-04-23T00:34:27.395Z,0.00
2023-04-23T00:35:27.327Z,0.00
2023-04-23T00:36:27.346Z,0.00
2023-04-23T00:37:27.328Z,0.00
2023-04-23T00:38:27.322Z,0.00
2023-04-23T00:39:27.424Z,0.00
2023-04-23T00:40:27.306Z,0.00
2023-04-23T00:41:27.265Z,0.00
2023-04-23T00:42:27.285Z,0.00
2023-04-23T00:43:27.225Z,0.00
2023-04-23T00:44:27.221Z,0.00
2023-04-23T00:45:27.248Z,0.00
2023-04-23T00:46:27.232Z,0.00
2023-04-23T00:47:27.195Z,0.00
2023-04-23T00:48:27.173Z,0.00
2023-04-23T00:49:27.160Z,0.00
2023-04-23T00:50:27.156Z,0.00
2023-04-23T00:51:27.242Z,0.00
2023-04-23T00:52:27.152Z,0.00
2023-04-23T00:53:27.084Z,0.00
2023-04-23T00:54:27.122Z,0.00
2023-04-23T00:55:27.067Z,0.00
2023-04-23T00:56:27.076Z,0.00
2023-04-23T00:57:27.073Z,0.00
2023-04-23T00:58:27.043Z,0.00
2023-04-23T00:59:27.032Z,0.00
2023-04-23T01:00:27.054Z,0.00
2023-04-23T01:01:26.982Z,0.00
2023-04-23T01:02:27.176Z,0.00
2023-04-23T01:03:27.203Z,0.00
2023-04-23T01:04:27.007Z,0.00
2023-04-23T01:05:26.956Z,0.00
2023-04-23T01:06:26.940Z,0.00
2023-04-23T01:07:26.920Z,0.00
2023-04-23T01:08:26.931Z,0.00
2023-04-23T01:09:26.916Z,0.00
2023-04-23T01:10:26.908Z,0.00
2023-04-23T01:11:26.845Z,0.00
2023-04-23T01:12:26.868Z,0.00
2023-04-23T01:13:26.854Z,0.00
2023-04-23T01:14:26.836Z,0.00
2023-04-23T01:15:26.942Z,0.00
2023-04-23T01:16:26.869Z,0.00
2023-04-23T01:17:26.778Z,0.00
2023-04-23T01:18:26.802Z,0.00
2023-04-23T01:19:26.763Z,0.00
2023-04-23T01:20:26.781Z,0.00
2023-04-23T01:21:26.830Z,0.00
2023-04-23T01:22:26.747Z,0.00
2023-04-23T01:23:26.696Z,0.00
2023-04-23T01:24:26.710Z,0.00
2023-04-23T01:25:26.684Z,0.00
2023-04-23T01:26:26.667Z,0.00
2023-04-23T01:27:26.677Z,0.00
2023-04-23T01:28:26.697Z,0.00
2023-04-23T01:29:26.614Z,0.00
2023-04-23T01:30:26.641Z,0.00
2023-04-23T01:31:26.617Z,0.00
2023-04-23T01:32:26.616Z,0.00
2023-04-23T01:33:26.607Z,0.00
2023-04-23T01:34:26.596Z,0.00
2023-04-23T01:35:26.524Z,0.00
2023-04-23T01:36:26.542Z,0.00
2023-04-23T01:37:26.526Z,0.00
2023-04-23T01:38:26.505Z,0.00
2023-04-23T01:39:26.543Z,0.00
2023-04-23T01:40:26.512Z,0.00
2023-04-23T01:41:26.458Z,0.00
2023-04-23T01:42:26.493Z,0.00
2023-04-23T01:43:26.414Z,0.00
2023-04-23T01:44:26.437Z,0.00
2023-04-23T01:45:26.455Z,0.00
2023-04-23T01:46:26.427Z,0.00
2023-04-23T01:47:26.411Z,0.00
2023-04-23T01:48:26.403Z,0.00
2023-04-23T01:49:26.338Z,0.00
2023-04-23T01:50:26.361Z,0.00
2023-04-23T01:51:26.434Z,0.00
2023-04-23T01:52:26.356Z,0.00
2023-04-23T01:53:26.275Z,0.00
2023-04-23T01:54:26.322Z,0.00
2023-04-23T01:55:26.260Z,0.00
2023-04-23T01:56:26.262Z,0.00
2023-04-23T01:57:26.470Z,0.00
2023-04-23T01:58:26.238Z,0.00
2023-04-23T01:59:26.222Z,0.00
2023-04-23T02:00:26.237Z,0.00
2023-04-23T02:01:26.243Z,0.00
2023-04-23T02:02:26.314Z,0.00
2023-04-23T02:03:26.275Z,0.00
2023-04-23T02:04:26.277Z,0.00
2023-04-23T02:05:26.143Z,0.00
2023-04-23T02:06:26.131Z,0.00
2023-04-23T02:07:26.113Z,0.00
2023-04-23T02:08:26.131Z,0.00
2023-04-23T02:09:26.118Z,0.00
2023-04-23T02:10:26.158Z,0.00
2023-04-23T02:11:26.037Z,0.00
2023-04-23T02:12:26.059Z,0.00
2023-04-23T02:13:26.034Z,0.00
2023-04-23T02:14:26.021Z,0.00
2023-04-23T02:15:26.144Z,0.00
2023-04-23T02:16:26.063Z,0.00
2023-04-23T02:17:25.973Z,0.00
2023-04-23T02:18:25.996Z,0.00
2023-04-23T02:19:25.927Z,0.00
2023-04-23T02:20:25.943Z,0.00
2023-04-23T02:21:25.951Z,0.00
2023-04-23T02:22:25.940Z,0.00
2023-04-23T02:23:25.878Z,0.00
2023-04-23T02:24:25.900Z,0.00
2023-04-23T02:25:25.882Z,0.00
2023-04-23T02:26:25.858Z,0.00
2023-04-23T02:27:25.974Z,0.00
2023-04-23T02:28:25.860Z,0.00
2023-04-23T02:29:25.795Z,0.00
2023-04-23T02:30:25.841Z,0.00
2023-04-23T02:31:25.853Z,0.00
2023-04-23T02:32:25.794Z,0.00
2023-04-23T02:33:25.895Z,0.00
2023-04-23T02:34:25.755Z,0.00
2023-04-23T02:35:25.733Z,0.00
2023-04-23T02:36:25.745Z,0.00
2023-04-23T02:37:25.681Z,0.00
2023-04-23T02:38:25.713Z,0.00
2023-04-23T02:39:25.819Z,0.00
2023-04-23T02:40:25.698Z,0.00
2023-04-23T02:41:25.623Z,0.00
2023-04-23T02:42:25.670Z,0.00
2023-04-23T02:43:25.602Z,0.00
2023-04-23T02:44:25.613Z,0.00
2023-04-23T02:45:25.723Z,0.00
2023-04-23T02:46:25.618Z,0.00
2023-04-23T02:47:25.642Z,0.00
2023-04-23T02:48:25.595Z,0.00
2023-04-23T02:49:25.509Z,0.00
2023-04-23T02:50:25.559Z,0.00
2023-04-23T02:51:25.600Z,0.00
2023-04-23T02:52:25.574Z,0.00
2023-04-23T02:53:25.488Z,0.00
2023-04-23T02:54:25.509Z,0.00
2023-04-23T02:55:25.455Z,0.00
2023-04-23T02:56:25.488Z,0.00
2023-04-23T02:57:25.488Z,0.00
2023-04-23T02:58:25.424Z,0.00
2023-04-23T02:59:25.412Z,0.00
2023-04-23T03:00:25.453Z,0.00
2023-04-23T03:01:25.433Z,0.00
2023-04-23T03:02:25.515Z,0.00
2023-04-23T03:03:25.452Z,0.00
2023-04-23T03:04:25.334Z,0.00
2023-04-23T03:05:25.403Z,0.00
2023-04-23T03:06:25.309Z,0.00
2023-04-23T03:07:25.301Z,0.00
2023-04-23T03:08:25.314Z,0.00
2023-04-23T03:09:25.270Z,0.00
2023-04-23T03:10:25.288Z,0.00
2023-04-23T03:11:25.219Z,0.00
2023-04-23T03:12:25.236Z,0.00
2023-04-23T03:13:25.216Z,0.00
2023-04-23T03:14:25.218Z,0.00
2023-04-23T03:15:25.240Z,0.00
2023-04-23T03:16:25.211Z,0.00
2023-04-23T03:17:25.157Z,0.00
2023-04-23T03:18:25.174Z,0.00
2023-04-23T03:19:25.108Z,0.00
2023-04-23T03:20:25.123Z,0.00
2023-04-23T03:21:25.138Z,0.00
2023-04-23T03:22:25.094Z,0.00
2023-04-23T03:23:25.083Z,0.00
2023-04-23T03:24:25.099Z,0.00
2023-04-23T03:25:25.025Z,0.00
2023-04-23T03:26:25.040Z,0.00
2023-04-23T03:27:25.059Z,0.00
2023-04-23T03:28:25.038Z,0.00
2023-04-23T03:29:24.970Z,0.00
2023-04-23T03:30:25.010Z,0.00
2023-04-23T03:31:24.966Z,0.00
2023-04-23T03:32:24.998Z,0.00
2023-04-23T03:33:25.073Z,0.00
2023-04-23T03:34:24.931Z,0.00
2023-04-23T03:35:24.920Z,0.00
2023-04-23T03:36:24.928Z,0.00
2023-04-23T03:37:24.866Z,1.00
2023-04-23T03:38:24.922Z,1.00
2023-04-23T03:39:24.866Z,1.00
2023-04-23T03:40:24.848Z,0.00
2023-04-23T03:41:24.841Z,0.00
2023-04-23T03:42:24.840Z,2.00
2023-04-23T03:43:24.787Z,2.00
2023-04-23T03:44:24.801Z,2.00
2023-04-23T03:45:24.892Z,0.00
2023-04-23T03:46:24.820Z,4.00
2023-04-23T03:47:24.776Z,4.00
2023-04-23T03:48:24.766Z,2.00
2023-04-23T03:49:24.700Z,6.00
2023-04-23T03:50:24.741Z,5.00
2023-04-23T03:51:24.702Z,9.00
2023-04-23T03:52:24.676Z,15.00
2023-04-23T03:53:24.676Z,9.00
2023-04-23T03:54:24.649Z,11.00
2023-04-23T03:55:24.654Z,20.00
2023-04-23T03:56:26.967Z,22.00
2023-04-23T03:57:24.632Z,18.00
2023-04-23T03:58:24.607Z,31.00
2023-04-23T03:59:24.585Z,32.00
2023-04-23T04:00:24.596Z,38.00
2023-04-23T04:01:24.533Z,39.00
2023-04-23T04:02:24.756Z,41.00
2023-04-23T04:03:24.788Z,39.00
2023-04-23T04:04:24.837Z,59.00
2023-04-23T04:05:24.587Z,59.00
2023-04-23T04:06:24.495Z,64.00
2023-04-23T04:07:24.481Z,79.00
2023-04-23T04:08:24.498Z,88.00
2023-04-23T04:09:24.538Z,91.00
2023-04-23T04:10:24.484Z,97.00
2023-04-23T04:11:24.394Z,106.00
2023-04-23T04:12:24.420Z,112.00
2023-04-23T04:13:24.400Z,109.00
2023-04-23T04:14:24.407Z,105.00
2023-04-23T04:15:24.485Z,129.00
2023-04-23T04:16:24.382Z,134.00
2023-04-23T04:17:24.391Z,144.00
2023-04-23T04:18:24.313Z,166.00
2023-04-23T04:19:24.349Z,185.00
2023-04-23T04:20:24.313Z,205.00
2023-04-23T04:21:24.330Z,228.00
2023-04-23T04:22:24.272Z,249.00
2023-04-23T04:23:24.274Z,267.00
2023-04-23T04:24:25.702Z,273.00
2023-04-23T04:25:24.259Z,302.00
2023-04-23T04:26:24.198Z,315.00
2023-04-23T04:27:24.282Z,332.00
2023-04-23T04:28:24.186Z,360.00
2023-04-23T04:29:24.203Z,385.00
2023-04-23T04:30:24.153Z,409.00
2023-04-23T04:31:24.220Z,420.00
2023-04-23T04:32:24.201Z,461.00
2023-04-23T04:33:24.239Z,493.00
2023-04-23T04:34:24.111Z,521.00
2023-04-23T04:35:24.123Z,555.00
2023-04-23T04:36:24.065Z,580.00
2023-04-23T04:37:24.113Z,619.00
2023-04-23T04:38:24.032Z,648.00
2023-04-23T04:39:24.091Z,687.00
2023-04-23T04:40:24.066Z,719.00
2023-04-23T04:41:24.033Z,743.00
2023-04-23T04:42:24.003Z,777.00
2023-04-23T04:43:23.990Z,806.00
2023-04-23T04:44:23.954Z,836.00
2023-04-23T04:45:24.098Z,862.00
2023-04-23T04:46:24.001Z,895.00
2023-04-23T04:47:23.966Z,924.00
2023-04-23T04:48:23.896Z,981.00
2023-04-23T04:49:23.951Z,1023.00
2023-04-23T04:50:23.865Z,1060.00
2023-04-23T04:51:23.941Z,1107.00
2023-04-23T04:52:23.879Z,1161.00
2023-04-23T04:53:23.876Z,1218.00
2023-04-23T04:54:23.832Z,1275.00
2023-04-23T04:55:23.820Z,1317.00
2023-04-23T04:56:23.778Z,1376.00
2023-04-23T04:57:23.879Z,1418.00
2023-04-23T04:58:23.770Z,1484.00
2023-04-23T04:59:23.803Z,1532.00
2023-04-23T05:00:23.756Z,1591.00
2023-04-23T05:01:23.781Z,1645.00
2023-04-23T05:02:23.809Z,1700.00
2023-04-23T05:03:23.953Z,1741.00
2023-04-23T05:04:23.804Z,1813.00
2023-04-23T05:05:23.678Z,1866.00
2023-04-23T05:06:23.672Z,1931.00
2023-04-23T05:07:23.661Z,1986.00
2023-04-23T05:08:23.628Z,2049.00
2023-04-23T05:09:23.782Z,2107.00
2023-04-23T05:10:23.599Z,2165.00
2023-04-23T05:11:23.632Z,2209.00
2023-04-23T05:12:23.598Z,2249.00
2023-04-23T05:13:23.586Z,2268.00
2023-04-23T05:14:23.566Z,2268.00
2023-04-23T05:15:23.596Z,2268.00
2023-04-23T05:16:23.564Z,2270.00
2023-04-23T05:17:23.573Z,2259.00
2023-04-23T05:18:23.489Z,2255.00
2023-04-23T05:19:23.524Z,2262.00
2023-04-23T05:20:23.474Z,2242.00
2023-04-23T05:21:23.510Z,2227.00
2023-04-23T05:22:23.458Z,2206.00
2023-04-23T05:23:23.439Z,2192.00
2023-04-23T05:24:23.410Z,2193.00
2023-04-23T05:25:23.444Z,2197.00
2023-04-23T05:26:23.369Z,2213.00
2023-04-23T05:27:23.458Z,2234.00
2023-04-23T05:28:23.376Z,2252.00
2023-04-23T05:29:23.374Z,2285.00
2023-04-23T05:30:23.376Z,2342.00
2023-04-23T05:31:23.359Z,2410.00
2023-04-23T05:32:23.359Z,2490.00
2023-04-23T05:33:23.373Z,2569.00
2023-04-23T05:34:23.291Z,2635.00
2023-04-23T05:35:23.272Z,2691.00
2023-04-23T05:36:23.249Z,2720.00
2023-04-23T05:37:23.275Z,2723.00
2023-04-23T05:38:23.214Z,2718.00
2023-04-23T05:39:23.364Z,2710.00
2023-04-23T05:40:23.203Z,2691.00
2023-04-23T05:41:23.209Z,2705.00
2023-04-23T05:42:23.179Z,2717.00
2023-04-23T05:43:23.166Z,2753.00
2023-04-23T05:44:23.124Z,2797.00
2023-04-23T05:45:23.196Z,2856.00
2023-04-23T05:46:23.144Z,2919.00
2023-04-23T05:47:23.171Z,2982.00
2023-04-23T05:48:23.093Z,3061.00
2023-04-23T05:49:23.082Z,3144.00
2023-04-23T05:50:23.031Z,3238.00
2023-04-23T05:51:23.104Z,3338.00
2023-04-23T05:52:23.034Z,3410.00
2023-04-23T05:53:23.023Z,3473.00
2023-04-23T05:54:23.003Z,3493.00
2023-04-23T05:55:23.001Z,3520.00
2023-04-23T05:56:22.951Z,3540.00
2023-04-23T05:57:23.434Z,3519.00
2023-04-23T05:58:22.935Z,3461.00
2023-04-23T05:59:22.986Z,3380.00
2023-04-23T06:00:22.937Z,3317.00
2023-04-23T06:01:22.972Z,3302.00
2023-04-23T06:02:24.673Z,3227.00
2023-04-23T06:03:23.065Z,3121.00
2023-04-23T06:04:23.092Z,3039.00
2023-04-23T06:05:23.089Z,2991.00
2023-04-23T06:06:22.845Z,2934.00
2023-04-23T06:07:22.832Z,2902.00
2023-04-23T06:08:24.895Z,2890.00
2023-04-23T06:09:22.877Z,2898.00
2023-04-23T06:10:22.755Z,2931.00
2023-04-23T06:11:22.797Z,2979.00
2023-04-23T06:12:22.757Z,3059.00
2023-04-23T06:13:22.744Z,3165.00
2023-04-23T06:14:22.739Z,3270.00
2023-04-23T06:15:22.840Z,3390.00
2023-04-23T06:16:22.717Z,3518.00
2023-04-23T06:17:22.717Z,3704.00
2023-04-23T06:18:22.640Z,3688.00
2023-04-23T06:19:22.685Z,3709.00
2023-04-23T06:20:22.662Z,4044.00
2023-04-23T06:21:22.686Z,3974.00
2023-04-23T06:22:22.634Z,4127.00
2023-04-23T06:23:22.602Z,4330.00
2023-04-23T06:24:22.567Z,4108.00
2023-04-23T06:25:22.602Z,4171.00
2023-04-23T06:26:22.536Z,4240.00
2023-04-23T06:27:22.636Z,4289.00
2023-04-23T06:28:22.536Z,4123.00
2023-04-23T06:29:22.541Z,4044.00
2023-04-23T06:30:22.507Z,4088.00
2023-04-23T06:31:22.530Z,4074.00
2023-04-23T06:32:22.461Z,4043.00
2023-04-23T06:33:22.521Z,4097.00
2023-04-23T06:34:22.441Z,4148.00
2023-04-23T06:35:22.468Z,4274.00
2023-04-23T06:36:22.441Z,4613.00
2023-04-23T06:37:22.431Z,4536.00
2023-04-23T06:38:22.369Z,4452.00
2023-04-23T06:39:22.527Z,4523.00
2023-04-23T06:40:22.374Z,4649.00
2023-04-23T06:41:22.382Z,4843.00
2023-04-23T06:42:22.348Z,5003.00
2023-04-23T06:43:22.327Z,5132.00
2023-04-23T06:44:22.287Z,5301.00
2023-04-23T06:45:22.373Z,5507.00
2023-04-23T06:46:22.281Z,5605.00
2023-04-23T06:47:22.309Z,5524.00
2023-04-23T06:48:22.267Z,6394.00
2023-04-23T06:49:22.251Z,5975.00
2023-04-23T06:50:22.229Z,6068.00
2023-04-23T06:51:22.261Z,6434.00
2023-04-23T06:52:22.182Z,6057.00
2023-04-23T06:53:22.479Z,6160.00
2023-04-23T06:54:22.193Z,6362.00
2023-04-23T06:55:22.176Z,7421.00
2023-04-23T06:56:22.124Z,7280.00
2023-04-23T06:57:22.242Z,7332.00
2023-04-23T06:58:22.104Z,6468.00
2023-04-23T06:59:22.157Z,7176.00
2023-04-23T07:00:22.094Z,7149.00
2023-04-23T07:01:22.171Z,7514.00
2023-04-23T07:02:22.086Z,7454.00
2023-04-23T07:03:22.261Z,7467.00
2023-04-23T07:04:22.078Z,7503.00
2023-04-23T07:05:22.071Z,7565.00
2023-04-23T07:06:22.253Z,7555.00
2023-04-23T07:07:22.049Z,7785.00
2023-04-23T07:08:22.025Z,8064.00
2023-04-23T07:09:22.021Z,8427.00
2023-04-23T07:10:22.048Z,8799.00
2023-04-23T07:11:21.998Z,9041.00
2023-04-23T07:12:21.950Z,8828.00
2023-04-23T07:13:21.950Z,8548.00
2023-04-23T07:14:22.012Z,8638.00
2023-04-23T07:15:21.962Z,8882.00
2023-04-23T07:16:22.271Z,8048.00
2023-04-23T07:17:21.997Z,6382.00
2023-04-23T07:18:22.687Z,5836.00
2023-04-23T07:19:22.004Z,5548.00
2023-04-23T07:20:21.853Z,6452.00
2023-04-23T07:21:21.880Z,6616.00
2023-04-23T07:22:21.834Z,6470.00
2023-04-23T07:23:21.821Z,6896.00
2023-04-23T07:24:21.770Z,6715.00
2023-04-23T07:25:21.799Z,6712.00
2023-04-23T07:26:21.752Z,6769.00
2023-04-23T07:27:21.923Z,6821.00
2023-04-23T07:28:21.739Z,6944.00
2023-04-23T07:29:21.737Z,6758.00
2023-04-23T07:30:21.726Z,7096.00
2023-04-23T07:31:21.717Z,7010.00
2023-04-23T07:32:21.682Z,6897.00
2023-04-23T07:33:21.753Z,7027.00
2023-04-23T07:34:21.641Z,7051.00
2023-04-23T07:35:21.683Z,7021.00
2023-04-23T07:36:21.658Z,7110.00
2023-04-23T07:37:21.632Z,7100.00
2023-04-23T07:38:21.611Z,7129.00
2023-04-23T07:39:21.642Z,7042.00
2023-04-23T07:40:21.555Z,7132.00
2023-04-23T07:41:21.602Z,7039.00
2023-04-23T07:42:21.567Z,7151.00
2023-04-23T07:43:21.562Z,7030.00
2023-04-23T07:44:21.491Z,7095.00
2023-04-23T07:45:21.571Z,7195.00
2023-04-23T07:46:21.532Z,7228.00
2023-04-23T07:47:21.541Z,7277.00
2023-04-23T07:48:21.471Z,7094.00
2023-04-23T07:49:21.460Z,7057.00
2023-04-23T07:50:21.453Z,7171.00
2023-04-23T07:51:21.465Z,7251.00
2023-04-23T07:52:21.398Z,7283.00
2023-04-23T07:53:21.455Z,7254.00
2023-04-23T07:54:21.387Z,7315.00
2023-04-23T07:55:21.412Z,7350.00
2023-04-23T07:56:21.378Z,7338.00
2023-04-23T07:57:21.383Z,7285.00
2023-04-23T07:58:21.312Z,7334.00
2023-04-23T07:59:21.360Z,7194.00
2023-04-23T08:00:21.317Z,7252.00
2023-04-23T08:01:21.307Z,7247.00
2023-04-23T08:02:21.337Z,7275.00
2023-04-23T08:03:21.454Z,7459.00
2023-04-23T08:04:21.444Z,7400.00
2023-04-23T08:05:21.338Z,7461.00
2023-04-23T08:06:21.208Z,7490.00
2023-04-23T08:07:21.254Z,7494.00
2023-04-23T08:08:21.210Z,7517.00
2023-04-23T08:09:21.226Z,7557.00
2023-04-23T08:10:21.177Z,7559.00
2023-04-23T08:11:21.164Z,7633.00
2023-04-23T08:12:21.125Z,7532.00
2023-04-23T08:13:21.169Z,7640.00
2023-04-23T08:14:21.133Z,7652.00
2023-04-23T08:15:21.144Z,7622.00
2023-04-23T08:16:21.099Z,7620.00
2023-04-23T08:17:21.135Z,7613.00
2023-04-23T08:18:21.051Z,7605.00
2023-04-23T08:19:21.082Z,7603.00
2023-04-23T08:20:21.040Z,7586.00
2023-04-23T08:21:21.142Z,7643.00
2023-04-23T08:22:22.181Z,7617.00
2023-04-23T08:23:20.985Z,7664.00
2023-04-23T08:24:20.963Z,7665.00
2023-04-23T08:25:21.045Z,7661.00
2023-04-23T08:26:20.927Z,7740.00
2023-04-23T08:27:21.103Z,7723.00
2023-04-23T08:28:20.927Z,7702.00
2023-04-23T08:29:20.966Z,7788.00
2023-04-23T08:30:20.926Z,7810.00
2023-04-23T08:31:26.571Z,7778.00
2023-04-23T08:32:22.209Z,7764.00
2023-04-23T08:33:20.856Z,7656.00
2023-04-23T08:34:20.855Z,7691.00
2023-04-23T08:35:20.837Z,7749.00
2023-04-23T08:36:20.846Z,7754.00
2023-04-23T08:37:30.215Z,7742.00
2023-04-23T08:38:21.837Z,7768.00
2023-04-23T08:39:20.749Z,7768.00
2023-04-23T08:40:20.773Z,7793.00
2023-04-23T08:41:20.755Z,7762.00
2023-04-23T08:42:20.742Z,7766.00
2023-04-23T08:43:20.724Z,7793.00
2023-04-23T08:44:20.781Z,7851.00
2023-04-23T08:45:20.673Z,7862.00
2023-04-23T08:46:20.716Z,7896.00
2023-04-23T08:47:20.671Z,7931.00
2023-04-23T08:48:20.689Z,7913.00
2023-04-23T08:49:20.611Z,7939.00
2023-04-23T08:50:20.692Z,7930.00
2023-04-23T08:51:20.587Z,7966.00
2023-04-23T08:52:20.601Z,7936.00
2023-04-23T08:53:20.598Z,7954.00
2023-04-23T08:54:20.578Z,7940.00
2023-04-23T08:55:20.571Z,7938.00
2023-04-23T08:56:20.698Z,7919.00
2023-04-23T08:57:20.514Z,7920.00
2023-04-23T08:58:20.555Z,7907.00
2023-04-23T08:59:20.487Z,7892.00
2023-04-23T09:00:20.508Z,7953.00
2023-04-23T09:01:20.519Z,7960.00
2023-04-23T09:02:20.706Z,7993.00
2023-04-23T09:03:20.485Z,8028.00
2023-04-23T09:04:20.447Z,8060.00
2023-04-23T09:05:20.430Z,8122.00
2023-04-23T09:06:20.416Z,8184.00
2023-04-23T09:07:20.403Z,7364.00
2023-04-23T09:08:20.448Z,7834.00
2023-04-23T09:09:20.349Z,8066.00
2023-04-23T09:10:20.384Z,7942.00
2023-04-23T09:11:20.327Z,7477.00
2023-04-23T09:12:20.345Z,8493.00
2023-04-23T09:13:20.310Z,8475.00
2023-04-23T09:14:20.337Z,8452.00
2023-04-23T09:15:20.306Z,8457.00
2023-04-23T09:16:20.318Z,8499.00
2023-04-23T09:17:20.236Z,8549.00
2023-04-23T09:18:20.261Z,8641.00
2023-04-23T09:19:20.237Z,8884.00
2023-04-23T09:20:20.314Z,9042.00
2023-04-23T09:21:20.197Z,9061.00
2023-04-23T09:22:20.233Z,9141.00
2023-04-23T09:23:20.191Z,9026.00
2023-04-23T09:24:20.139Z,9043.00
2023-04-23T09:25:20.162Z,9198.00
2023-04-23T09:26:20.184Z,8605.00
2023-04-23T09:27:20.131Z,9444.00
2023-04-23T09:28:20.137Z,9513.00
2023-04-23T09:29:20.071Z,9602.00
2023-04-23T09:30:20.148Z,9317.00
2023-04-23T09:31:20.082Z,10245.00
2023-04-23T09:32:20.337Z,10300.00
2023-04-23T09:33:20.060Z,10429.00
2023-04-23T09:34:20.037Z,10642.00
2023-04-23T09:35:20.088Z,11264.00
2023-04-23T09:36:20.034Z,10929.00
2023-04-23T09:37:20.062Z,11401.00
2023-04-23T09:38:20.033Z,11918.00
2023-04-23T09:39:19.932Z,12147.00
2023-04-23T09:40:20.108Z,11286.00
2023-04-23T09:41:19.940Z,10252.00
2023-04-23T09:42:19.918Z,9354.00
2023-04-23T09:43:19.937Z,8659.00
2023-04-23T09:44:20.026Z,8546.00
2023-04-23T09:45:19.872Z,9108.00
2023-04-23T09:46:19.913Z,10575.00
2023-04-23T09:47:19.848Z,11145.00
2023-04-23T09:48:19.837Z,12989.00
2023-04-23T09:49:19.864Z,13303.00
2023-04-23T09:50:20.050Z,12288.00
2023-04-23T09:51:19.770Z,11504.00
2023-04-23T09:52:19.798Z,11550.00
2023-04-23T09:53:19.776Z,11047.00
2023-04-23T09:54:19.754Z,10109.00
2023-04-23T09:55:19.745Z,9712.00
2023-04-23T09:56:19.875Z,9914.00
2023-04-23T09:57:19.722Z,10206.00
2023-04-23T09:58:19.723Z,10365.00
2023-04-23T09:59:19.658Z,10044.00
2023-04-23T10:00:20.045Z,9322.00
2023-04-23T10:01:19.709Z,8219.00
2023-04-23T10:02:19.767Z,7661.00
2023-04-23T10:03:19.716Z,7870.00
2023-04-23T10:04:19.920Z,9172.00
2023-04-23T10:05:24.170Z,9036.00
2023-04-23T10:06:36.863Z,9255.00
2023-04-23T10:07:20.760Z,9389.00
2023-04-23T10:08:19.609Z,9284.00
2023-04-23T10:09:19.523Z,9226.00
2023-04-23T10:10:19.572Z,9169.00
2023-04-23T10:11:21.067Z,9152.00
2023-04-23T10:13:21.278Z,9248.00
2023-04-23T10:14:19.493Z,9261.00
2023-04-23T10:15:19.472Z,9364.00
2023-04-23T10:16:24.069Z,9573.00
2023-04-23T10:17:20.456Z,9803.00
2023-04-23T10:18:19.478Z,9971.00
2023-04-23T10:19:19.511Z,9719.00
2023-04-23T10:20:19.422Z,9147.00
2023-04-23T10:21:19.400Z,9974.00
2023-04-23T10:22:20.271Z,10000.00
2023-04-23T10:23:19.336Z,10075.00
2023-04-23T10:24:19.349Z,9653.00
2023-04-23T10:25:19.453Z,9454.00
2023-04-23T10:26:19.317Z,9457.00
2023-04-23T10:28:19.317Z,9440.00
2023-04-23T10:29:19.258Z,9414.00
2023-04-23T10:30:19.625Z,9554.00
2023-04-23T10:31:19.304Z,7046.00
2023-04-23T10:32:19.251Z,9646.00
2023-04-23T10:33:29.373Z,9758.00
2023-04-23T10:34:20.258Z,9762.00
2023-04-23T10:35:19.215Z,9592.00
2023-04-23T10:36:19.214Z,9515.00
2023-04-23T10:37:19.271Z,9557.00
2023-04-23T10:38:19.187Z,9639.00
2023-04-23T10:39:27.447Z,9758.00
2023-04-23T10:40:20.142Z,10374.00
2023-04-23T10:41:20.702Z,11009.00
2023-04-23T10:42:19.106Z,10688.00
2023-04-23T10:43:19.132Z,10592.00
2023-04-23T10:44:32.984Z,11099.00
2023-04-23T10:45:24.837Z,11404.00
2023-04-23T10:46:20.109Z,10917.00
2023-04-23T10:47:19.044Z,10968.00
2023-04-23T10:48:19.021Z,11068.00
2023-04-23T10:49:19.115Z,11832.00
2023-04-23T10:50:19.132Z,11563.00
2023-04-23T10:51:59.156Z,11996.00
2023-04-23T10:52:22.801Z,14176.00
2023-04-23T10:53:18.932Z,14911.00
2023-04-23T10:54:18.943Z,14294.00
2023-04-23T10:55:19.075Z,13788.00
2023-04-23T10:56:18.955Z,14841.00
2023-04-23T10:57:18.882Z,16686.00
2023-04-23T10:58:18.905Z,15432.00
2023-04-23T10:59:18.848Z,15543.00
2023-04-23T11:00:18.854Z,18458.00
2023-04-23T11:01:18.876Z,18743.00
2023-04-23T11:02:18.914Z,17464.00
2023-04-23T11:03:19.014Z,16772.00
2023-04-23T11:04:19.012Z,16234.00
2023-04-23T11:05:18.789Z,15473.00
2023-04-23T11:06:18.810Z,14986.00
2023-04-23T11:07:18.759Z,15404.00
2023-04-23T11:08:20.025Z,15591.00
2023-04-23T11:09:18.747Z,14973.00
2023-04-23T11:10:18.772Z,13912.00
2023-04-23T11:11:18.685Z,13741.00
2023-04-23T11:12:18.700Z,14486.00
2023-04-23T11:13:18.726Z,14570.00
2023-04-23T11:14:18.669Z,17069.00
2023-04-23T11:15:18.660Z,15715.00
2023-04-23T11:16:18.874Z,17308.00
2023-04-23T11:17:18.612Z,18839.00
2023-04-23T11:18:18.649Z,16881.00
2023-04-23T11:19:20.586Z,16887.00
2023-04-23T11:20:18.584Z,13560.00
2023-04-23T11:21:18.577Z,12361.00
2023-04-23T11:22:18.573Z,12520.00
2023-04-23T11:23:18.557Z,12668.00
2023-04-23T11:24:18.566Z,13201.00
2023-04-23T11:25:18.604Z,12451.00
2023-04-23T11:26:18.511Z,12416.00
2023-04-23T11:27:18.499Z,12891.00
2023-04-23T11:28:18.510Z,14070.00
2023-04-23T11:29:18.443Z,16570.00
2023-04-23T11:30:18.492Z,18160.00
2023-04-23T11:31:18.451Z,16988.00
2023-04-23T11:32:18.513Z,15403.00
2023-04-23T11:33:18.437Z,15597.00
2023-04-23T11:34:18.410Z,17534.00
2023-04-23T11:35:18.381Z,20164.00
2023-04-23T11:36:18.403Z,21597.00
2023-04-23T11:37:18.359Z,22604.00
2023-04-23T11:38:18.371Z,21982.00
2023-04-23T11:39:18.304Z,22850.00
2023-04-23T11:40:18.322Z,23310.00
2023-04-23T11:41:19.538Z,23266.00
2023-04-23T11:42:18.291Z,21974.00
2023-04-23T11:43:18.406Z,20205.00
2023-04-23T11:44:18.268Z,13548.00
2023-04-23T11:45:18.227Z,13865.00
2023-04-23T11:46:18.283Z,18099.00
2023-04-23T11:47:18.207Z,15804.00
2023-04-23T11:48:18.213Z,20961.00
2023-04-23T11:49:18.320Z,16213.00
2023-04-23T11:50:18.185Z,23081.00
2023-04-23T11:51:18.166Z,22984.00
2023-04-23T11:52:18.187Z,22171.00
2023-04-23T11:53:18.134Z,21686.00
2023-04-23T11:54:18.162Z,16878.00
2023-04-23T11:55:18.212Z,18149.00
2023-04-23T11:56:18.107Z,16205.00
2023-04-23T11:57:18.094Z,18409.00
2023-04-23T11:58:18.104Z,15804.00
2023-04-23T11:59:18.037Z,14902.00
2023-04-23T12:00:18.047Z,15386.00
2023-04-23T12:01:18.081Z,17017.00
2023-04-23T12:02:18.147Z,18322.00
2023-04-23T12:03:18.093Z,20011.00
2023-04-23T12:04:18.230Z,27617.00
2023-04-23T12:05:17.952Z,28104.00
2023-04-23T12:06:17.998Z,24787.00
2023-04-23T12:07:26.449Z,23526.00
2023-04-23T12:08:18.945Z,23437.00
2023-04-23T12:09:17.954Z,21523.00
2023-04-23T12:10:17.929Z,15951.00
2023-04-23T12:11:17.903Z,15187.00
2023-04-23T12:12:17.920Z,18011.00
2023-04-23T12:13:17.885Z,18587.00
2023-04-23T12:14:17.874Z,14295.00
2023-04-23T12:15:17.851Z,14620.00
2023-04-23T12:16:17.883Z,15757.00
2023-04-23T12:17:17.792Z,18444.00
2023-04-23T12:18:17.829Z,30816.00
2023-04-23T12:19:17.807Z,24125.00
2023-04-23T12:20:17.791Z,39489.00
2023-04-23T12:21:17.763Z,40995.00
2023-04-23T12:22:17.754Z,38484.00
2023-04-23T12:23:17.753Z,31664.00
2023-04-23T12:24:17.761Z,18647.00
2023-04-23T12:25:17.828Z,17352.00
2023-04-23T12:26:17.770Z,17163.00
2023-04-23T12:27:17.674Z,19187.00